Time;durP1;ratioP1;P1;durP2;ratioP2;P2;SDS_P1;SDS_P2;PMS_P1;PMS_P2;Temp;Humidity;BMP_temperature;BMP_pressure;BME280_temperature;BME280_humidity;BME280_pressure;Samples;Min_cycle;Max_cycle;Signal;HPM_P1;HPM_P2
2020/12/29 00:01:41;;;;;;;1.88;1.08;;;12.90;65.50;;;;;;5086808;28;20020;-73
2020/12/29 00:04:20;;;;;;;4.30;1.55;;;13.00;64.70;;;;;;5106959;28;20429;-74
2020/12/29 00:06:50;;;;;;;4.22;1.60;;;12.80;65.50;;;;;;5124591;27;20035;-75
2020/12/29 00:09:18;;;;;;;3.78;1.00;;;12.90;65.70;;;;;;5092456;28;20782;-72
2020/12/29 00:11:45;;;;;;;2.63;1.13;;;13.00;64.90;;;;;;5091197;28;20020;-75
2020/12/29 00:14:13;;;;;;;4.70;1.80;;;12.80;65.90;;;;;;5092476;28;20120;-73
2020/12/29 00:16:39;;;;;;;4.20;1.50;;;12.80;65.70;;;;;;5092296;28;20035;-74
2020/12/29 00:19:09;;;;;;;2.30;0.90;;;12.80;65.70;;;;;;5092656;28;20380;-74
2020/12/29 00:21:35;;;;;;;2.17;1.00;;;12.80;66.20;;;;;;5093257;28;20035;-73
2020/12/29 00:24:01;;;;;;;3.17;1.20;;;12.80;65.40;;;;;;5094780;28;20024;-73
2020/12/29 00:26:27;;;;;;;3.63;1.20;;;12.80;66.20;;;;;;5093478;28;20032;-74
2020/12/29 00:28:53;;;;;;;1.98;1.00;;;12.70;67.20;;;;;;5092745;28;20138;-73
2020/12/29 00:31:20;;;;;;;4.50;1.10;;;12.70;66.70;;;;;;5093260;28;20032;-76
2020/12/29 00:33:47;;;;;;;2.05;1.10;;;12.90;65.90;;;;;;5093668;28;20054;-73
2020/12/29 00:36:14;;;;;;;2.17;1.20;;;12.70;67.10;;;;;;5093303;28;20028;-75
2020/12/29 00:38:40;;;;;;;3.22;1.10;;;12.90;67.00;;;;;;5093934;28;20028;-74
2020/12/29 00:41:07;;;;;;;1.98;0.90;;;12.80;67.90;;;;;;5093423;28;20039;-72
2020/12/29 00:43:34;;;;;;;0.77;0.47;;;12.70;68.60;;;;;;5092856;28;20119;-73
2020/12/29 00:46:12;;;;;;;1.27;0.82;;;12.80;68.30;;;;;;5093144;28;20105;-74
2020/12/29 00:48:39;;;;;;;1.83;0.93;;;12.70;68.60;;;;;;5093572;28;20039;-74
2020/12/29 00:51:19;;;;;;;2.92;1.48;;;12.60;69.90;;;;;;5093153;28;20058;-74
2020/12/29 00:53:46;;;;;;;3.25;1.30;;;12.60;69.70;;;;;;5094632;28;20073;-73
2020/12/29 00:56:12;;;;;;;4.43;1.60;;;12.60;70.10;;;;;;5093298;28;20426;-72
2020/12/29 00:58:39;;;;;;;3.20;1.20;;;12.50;71.20;;;;;;5092961;28;20390;-74
2020/12/29 01:01:06;;;;;;;3.40;1.17;;;12.40;72.30;;;;;;5093623;28;20020;-75
2020/12/29 01:03:32;;;;;;;3.10;1.13;;;12.20;73.40;;;;;;5094065;28;20027;-73
2020/12/29 01:05:58;;;;;;;3.13;1.13;;;12.20;73.30;;;;;;5093091;28;20024;-73
2020/12/29 01:08:23;;;;;;;1.55;0.85;;;12.10;74.20;;;;;;5092958;28;20032;-74
2020/12/29 01:10:53;;;;;;;2.30;0.90;;;12.10;74.50;;;;;;5092527;28;20066;-73
2020/12/29 01:13:19;;;;;;;3.63;1.42;;;12.00;75.20;;;;;;5094313;28;20027;-74
2020/12/29 01:15:46;;;;;;;3.25;1.15;;;11.90;76.20;;;;;;5092883;28;20032;-74
2020/12/29 01:18:12;;;;;;;2.88;0.90;;;11.90;76.40;;;;;;5092715;28;20047;-72
2020/12/29 01:20:38;;;;;;;3.40;1.27;;;11.80;77.40;;;;;;5092845;28;20028;-76
2020/12/29 01:23:04;;;;;;;1.67;0.70;;;11.70;79.30;;;;;;5092857;28;20032;-73
2020/12/29 01:25:29;;;;;;;1.73;0.80;;;11.60;81.70;;;;;;5093824;28;20031;-74
2020/12/29 01:27:55;;;;;;;2.85;1.00;;;11.40;85.00;;;;;;5092786;28;20028;-74
2020/12/29 01:30:21;;;;;;;9.82;3.30;;;11.10;88.30;;;;;;5093822;28;20483;-72
2020/12/29 01:32:47;;;;;;;13.55;5.32;;;10.90;89.40;;;;;;5092425;28;20031;-73
2020/12/29 01:35:13;;;;;;;13.50;5.47;;;10.60;90.70;;;;;;5092700;28;20029;-74
2020/12/29 01:37:44;;;;;;;16.73;5.80;;;9.40;90.50;;;;;;5092677;28;20349;-73
2020/12/29 01:40:11;;;;;;;9.68;3.13;;;8.90;91.70;;;;;;5092290;28;20034;-73
2020/12/29 01:42:37;;;;;;;17.42;6.35;;;8.60;92.80;;;;;;5337364;22;22376;-74
2020/12/29 01:47:58;;;;;;;7.70;2.70;;;8.70;93.80;;;;;;5258398;23;20487;-74
2020/12/29 01:50:25;;;;;;;11.65;2.38;;;8.60;94.50;;;;;;4919757;29;20067;-73
2020/12/29 01:53:09;;;;;;;7.22;2.22;;;8.60;94.40;;;;;;4919444;29;20387;-76
2020/12/29 01:55:35;;;;;;;3.65;1.70;;;8.70;94.00;;;;;;4919359;29;20431;-73
2020/12/29 05:49:11;;;;;;;20.95;14.73;;;7.60;89.40;;;;;;5179063;23;20059;-77
2020/12/29 05:51:39;;;;;;;15.02;9.68;;;7.50;90.00;;;;;;4955762;29;20352;-75
2020/12/29 06:06:06;;;;;;;24.70;14.00;;;7.60;90.30;;;;;;5172892;23;20039;-72
2020/12/29 06:08:38;;;;;;;27.42;14.55;;;7.60;90.10;;;;;;4959438;28;20043;-71
2020/12/29 06:13:49;;;;;;;23.25;13.60;;;7.60;90.30;;;;;;5734226;23;20119;-74
2020/12/29 06:19:02;;;;;;;24.45;13.75;;;7.50;90.10;;;;;;5196005;23;20062;-72
2020/12/29 06:24:03;;;;;;;17.77;8.88;;;7.50;90.10;;;;;;4850825;23;20070;-72
2020/12/29 06:37:26;;;;;;;61.38;29.83;;;7.30;90.70;;;;;;5301026;23;20671;-74
2020/12/29 06:54:15;;;;;;;37.47;22.80;;;7.10;91.00;;;;;;5270197;23;19946;-71
2020/12/29 07:02:35;;;;;;;83.85;44.60;;;7.00;90.60;;;;;;5970668;23;20014;-75
2020/12/29 07:13:28;;;;;;;101.88;59.60;;;7.20;90.30;;;;;;5616004;23;23643;-75
2020/12/29 07:15:55;;;;;;;106.47;53.35;;;7.20;90.50;;;;;;5393536;23;20396;-73
2020/12/29 07:18:26;;;;;;;79.15;47.88;;;7.30;90.80;;;;;;4921516;29;20435;-73
2020/12/29 07:23:30;;;;;;;62.00;38.80;;;7.30;90.00;;;;;;5449890;23;20051;-73
2020/12/29 07:25:59;;;;;;;59.83;36.33;;;7.30;90.00;;;;;;5203909;23;20498;-73
2020/12/29 07:34:02;;;;;;;182.07;113.93;;;7.50;89.60;;;;;;4763125;29;20048;-72
2020/12/29 07:36:46;;;;;;;129.90;83.70;;;7.60;89.90;;;;;;5111841;23;21951;-71
2020/12/29 07:39:17;;;;;;;108.57;63.10;;;7.70;89.70;;;;;;4939416;29;20036;-72
2020/12/29 07:41:44;;;;;;;91.63;50.97;;;7.70;89.20;;;;;;5166721;23;20142;-74
2020/12/29 07:44:10;;;;;;;66.85;37.95;;;7.70;89.10;;;;;;4957144;29;20118;-73
2020/12/29 07:46:36;;;;;;;46.20;23.42;;;7.80;88.50;;;;;;4957361;29;20058;-73
2020/12/29 07:49:03;;;;;;;52.58;28.60;;;8.00;87.00;;;;;;4956035;29;20039;-73
2020/12/29 07:51:48;;;;;;;51.65;30.02;;;8.10;86.90;;;;;;5199304;23;20044;-75
2020/12/29 07:54:17;;;;;;;56.25;32.83;;;8.10;87.30;;;;;;4920262;29;20041;-76
2020/12/29 07:56:43;;;;;;;52.20;28.55;;;8.20;87.50;;;;;;4919401;29;20383;-76
2020/12/29 07:59:10;;;;;;;49.35;25.20;;;8.20;87.00;;;;;;4919198;29;20070;-75
2020/12/29 08:01:52;;;;;;;42.08;22.83;;;8.30;86.50;;;;;;5174003;23;20059;-68
2020/12/29 08:04:33;;;;;;;38.42;21.50;;;8.40;86.60;;;;;;4956120;29;20054;-72
2020/12/29 08:07:07;;;;;;;39.97;21.85;;;8.50;86.10;;;;;;4956550;29;20050;-73
2020/12/29 08:12:23;;;;;;;48.05;30.05;;;8.70;87.60;;;;;;5157078;23;20070;-72
2020/12/29 08:14:48;;;;;;;45.88;32.88;;;8.70;88.10;;;;;;4956380;29;20427;-72
2020/12/29 08:17:14;;;;;;;17.35;12.80;;;8.70;88.70;;;;;;4955782;29;20027;-73
2020/12/29 08:19:40;;;;;;;13.85;8.93;;;8.70;88.00;;;;;;4954618;28;20042;-72
2020/12/29 08:22:07;;;;;;;12.30;7.80;;;8.90;87.90;;;;;;4957054;28;20028;-71
2020/12/29 08:24:34;;;;;;;13.93;7.70;;;8.90;88.40;;;;;;4955687;29;20031;-73
2020/12/29 08:27:00;;;;;;;16.88;9.07;;;9.00;87.40;;;;;;4955402;29;20034;-72
2020/12/29 08:29:26;;;;;;;12.32;7.20;;;9.00;88.10;;;;;;4956791;28;20398;-73
2020/12/29 08:32:07;;;;;;;14.70;9.32;;;9.20;87.30;;;;;;4955193;29;20064;-72
2020/12/29 08:34:33;;;;;;;21.38;13.68;;;9.30;86.50;;;;;;4957430;28;20027;-73
2020/12/29 08:37:03;;;;;;;27.27;18.83;;;9.40;85.80;;;;;;4955395;29;20027;-72
2020/12/29 08:40:01;;;;;;;26.77;19.48;;;9.50;84.70;;;;;;4955324;29;20238;-72
2020/12/29 08:42:32;;;;;;;33.92;19.92;;;9.60;84.90;;;;;;4956404;29;20061;-70
2020/12/29 08:45:00;;;;;;;30.52;19.45;;;9.70;84.70;;;;;;4956334;28;20147;-71
2020/12/29 08:47:31;;;;;;;36.75;23.73;;;9.90;83.70;;;;;;4954957;29;20094;-70
2020/12/29 09:15:10;;;;;;;21.83;13.30;;;10.50;83.90;;;;;;5112019;27;20354;-70
2020/12/29 09:17:41;;;;;;;26.45;16.10;;;11.90;75.70;;;;;;5110144;28;20066;-71
2020/12/29 09:20:12;;;;;;;30.65;17.85;;;12.20;76.20;;;;;;5109942;28;20034;-70
2020/12/29 09:22:52;;;;;;;34.83;18.50;;;12.60;75.50;;;;;;5110001;28;20446;-72
2020/12/29 09:25:22;;;;;;;26.50;18.08;;;13.00;75.10;;;;;;5111035;28;20032;-72
2020/12/29 09:27:48;;;;;;;24.55;14.98;;;13.40;73.40;;;;;;5110687;28;20515;-73
2020/12/29 09:30:14;;;;;;;25.42;13.63;;;13.80;72.00;;;;;;5109777;28;20066;-71
2020/12/29 09:32:40;;;;;;;19.77;12.85;;;13.90;68.90;;;;;;5110860;28;20077;-72
2020/12/29 09:35:26;;;;;;;16.58;11.40;;;14.00;67.80;;;;;;5111088;28;20519;-73
2020/12/29 09:37:53;;;;;;;16.55;8.52;;;14.10;66.50;;;;;;5110973;28;20016;-71
2020/12/29 09:40:19;;;;;;;11.38;8.27;;;14.40;68.00;;;;;;5110444;28;20046;-72
2020/12/29 09:42:45;;;;;;;9.05;6.15;;;14.40;65.40;;;;;;5109689;28;20035;-72
2020/12/29 09:45:11;;;;;;;12.30;7.53;;;14.40;64.10;;;;;;5110919;28;20020;-74
2020/12/29 09:47:37;;;;;;;11.63;6.03;;;14.60;65.70;;;;;;5110599;28;20024;-73
2020/12/29 09:50:04;;;;;;;10.43;6.10;;;14.70;63.90;;;;;;5109278;28;20036;-73
2020/12/29 09:52:30;;;;;;;11.63;7.75;;;14.70;62.80;;;;;;5109457;28;20028;-72
2020/12/29 09:54:57;;;;;;;106.65;14.38;;;15.00;70.20;;;;;;5109096;28;20058;-70
2020/12/29 09:57:23;;;;;;;13.23;6.63;;;15.00;63.40;;;;;;5110385;28;20464;-71
2020/12/29 09:59:48;;;;;;;11.27;7.10;;;15.10;64.30;;;;;;5109092;28;20081;-72
2020/12/29 10:02:14;;;;;;;19.98;10.73;;;15.20;63.00;;;;;;5110079;28;20403;-71
2020/12/29 10:04:40;;;;;;;22.23;11.32;;;15.50;63.20;;;;;;5108743;28;20088;-71
2020/12/29 10:07:06;;;;;;;12.43;7.68;;;15.40;62.30;;;;;;5109147;28;20468;-70
2020/12/29 10:09:31;;;;;;;12.40;6.75;;;15.70;60.20;;;;;;5110446;28;20477;-70
2020/12/29 10:11:57;;;;;;;14.25;7.60;;;15.80;60.80;;;;;;5109035;28;20027;-71
2020/12/29 10:14:23;;;;;;;14.38;8.98;;;15.60;61.20;;;;;;5104483;28;20040;-70
2020/12/29 10:16:49;;;;;;;12.48;7.60;;;15.80;62.00;;;;;;5096430;28;20472;-73
2020/12/29 10:19:15;;;;;;;11.10;6.70;;;15.60;62.40;;;;;;5096739;28;20417;-71
2020/12/29 10:21:43;;;;;;;13.13;6.57;;;15.70;61.30;;;;;;5096591;28;20054;-72
2020/12/29 10:24:10;;;;;;;9.75;6.40;;;15.70;60.60;;;;;;5096804;28;20024;-72
2020/12/29 10:26:36;;;;;;;8.70;5.72;;;16.00;61.50;;;;;;5096849;28;20059;-70
2020/12/29 10:29:02;;;;;;;11.07;6.32;;;15.80;59.90;;;;;;5095936;28;20055;-71
2020/12/29 10:31:27;;;;;;;11.05;6.50;;;16.00;60.40;;;;;;5096764;28;20040;-71
2020/12/29 10:33:54;;;;;;;10.55;5.88;;;16.10;61.50;;;;;;5096695;28;20045;-71
2020/12/29 10:36:20;;;;;;;9.68;5.68;;;16.20;58.10;;;;;;5096382;28;20024;-71
2020/12/29 10:38:45;;;;;;;8.98;4.80;;;16.20;59.10;;;;;;5095100;28;20107;-71
2020/12/29 10:41:12;;;;;;;9.20;5.18;;;16.20;58.70;;;;;;5095554;28;20024;-71
2020/12/29 10:43:38;;;;;;;10.52;5.20;;;16.40;58.40;;;;;;5094587;28;20119;-72
2020/12/29 10:46:04;;;;;;;8.20;5.15;;;16.40;57.60;;;;;;5095774;28;20468;-72
2020/12/29 10:48:30;;;;;;;17.23;8.98;;;16.50;57.40;;;;;;5094839;28;20070;-72
2020/12/29 10:50:55;;;;;;;16.80;10.23;;;16.60;57.10;;;;;;5095504;28;20030;-70
2020/12/29 10:53:21;;;;;;;10.90;5.75;;;16.80;59.40;;;;;;5096121;28;20398;-72
2020/12/29 10:55:47;;;;;;;10.70;5.95;;;16.80;57.30;;;;;;5094711;28;20483;-69
2020/12/29 10:58:13;;;;;;;10.30;5.30;;;16.90;58.20;;;;;;5094704;28;20422;-73
2020/12/29 11:00:38;;;;;;;10.65;6.05;;;17.00;57.50;;;;;;5095955;28;20027;-72
2020/12/29 11:03:04;;;;;;;8.77;5.18;;;16.90;55.70;;;;;;5095495;28;20031;-71
2020/12/29 11:05:30;;;;;;;10.60;4.65;;;16.80;56.30;;;;;;5094563;28;20111;-72
2020/12/29 11:07:55;;;;;;;10.80;5.28;;;16.80;56.10;;;;;;5094699;28;20429;-70
2020/12/29 11:10:21;;;;;;;8.90;4.50;;;17.10;56.70;;;;;;5094150;28;20048;-71
2020/12/29 11:12:47;;;;;;;10.07;4.65;;;17.20;53.40;;;;;;5095167;28;20099;-71
2020/12/29 11:15:12;;;;;;;10.55;5.13;;;17.20;55.20;;;;;;5094588;28;20060;-72
2020/12/29 11:17:39;;;;;;;15.45;5.60;;;17.10;54.70;;;;;;5093834;28;20059;-72
2020/12/29 11:20:05;;;;;;;8.05;3.95;;;17.10;55.30;;;;;;5095138;28;20024;-69
2020/12/29 11:22:31;;;;;;;12.55;5.72;;;17.10;53.10;;;;;;5095406;28;20047;-71
2020/12/29 11:24:56;;;;;;;8.90;4.65;;;17.10;54.90;;;;;;5094869;28;20114;-71
2020/12/29 11:27:22;;;;;;;11.68;5.78;;;17.50;55.50;;;;;;5094387;28;20449;-69
2020/12/29 11:29:48;;;;;;;10.40;4.45;;;18.00;53.80;;;;;;5094061;28;20032;-68
2020/12/29 11:32:13;;;;;;;9.25;4.70;;;17.60;54.50;;;;;;5093721;28;20080;-69
2020/12/29 11:34:39;;;;;;;10.32;5.97;;;17.50;54.50;;;;;;5095236;28;20426;-69
2020/12/29 11:37:05;;;;;;;20.08;9.95;;;17.50;53.80;;;;;;5095219;28;20032;-68
2020/12/29 11:39:31;;;;;;;24.45;11.02;;;17.50;53.80;;;;;;5094611;28;20385;-68
2020/12/29 11:41:56;;;;;;;15.23;6.55;;;17.50;53.00;;;;;;5095110;28;20492;-67
2020/12/29 11:44:22;;;;;;;14.60;6.57;;;17.50;53.80;;;;;;5095052;28;20172;-70
2020/12/29 11:46:48;;;;;;;11.38;5.60;;;17.50;51.50;;;;;;5093422;28;20036;-69
2020/12/29 11:49:14;;;;;;;12.45;6.63;;;17.50;50.50;;;;;;5095007;28;20027;-70
2020/12/29 11:51:44;;;;;;;24.65;13.55;;;17.50;53.00;;;;;;5095099;28;20026;-69
2020/12/29 11:54:10;;;;;;;15.48;8.30;;;17.80;52.70;;;;;;5093611;28;20110;-69
2020/12/29 11:56:36;;;;;;;14.13;7.40;;;18.10;53.30;;;;;;5094555;28;20413;-68
2020/12/29 11:59:01;;;;;;;16.48;6.85;;;18.20;51.50;;;;;;5094662;28;20607;-69
2020/12/29 12:01:27;;;;;;;13.95;7.68;;;18.30;50.50;;;;;;5094178;28;20103;-70
2020/12/29 12:03:53;;;;;;;16.00;8.48;;;18.30;48.90;;;;;;5093752;28;20028;-70
2020/12/29 12:06:19;;;;;;;12.98;6.55;;;18.50;50.60;;;;;;5093548;28;20055;-69
2020/12/29 12:08:45;;;;;;;13.15;7.68;;;18.70;49.70;;;;;;5094394;28;20105;-70
2020/12/29 12:11:10;;;;;;;10.90;5.78;;;18.80;49.20;;;;;;5094590;28;20032;-70
2020/12/29 12:13:36;;;;;;;8.15;3.90;;;18.70;49.60;;;;;;5094155;28;20093;-68
2020/12/29 12:16:02;;;;;;;7.95;4.72;;;18.30;48.80;;;;;;5094429;28;20373;-69
2020/12/29 12:18:28;;;;;;;16.02;9.60;;;18.30;50.80;;;;;;5094483;28;20465;-69
2020/12/29 12:20:53;;;;;;;17.73;7.93;;;18.70;51.00;;;;;;5092891;28;20024;-69
2020/12/29 12:23:19;;;;;;;16.85;7.70;;;18.70;49.30;;;;;;5094305;28;20034;-68
2020/12/29 12:25:45;;;;;;;18.80;8.43;;;18.70;50.10;;;;;;5094351;28;20059;-70
2020/12/29 12:28:10;;;;;;;14.15;6.30;;;18.60;49.60;;;;;;5093701;28;20024;-68
2020/12/29 12:30:36;;;;;;;11.05;5.82;;;18.40;48.80;;;;;;5094201;28;20073;-68
2020/12/29 12:33:02;;;;;;;10.82;6.20;;;18.40;48.80;;;;;;5094133;28;20058;-70
2020/12/29 12:35:28;;;;;;;13.65;6.90;;;18.30;48.90;;;;;;5093832;28;20089;-69
2020/12/29 12:37:53;;;;;;;9.70;4.07;;;18.40;48.70;;;;;;5093626;28;20024;-70
2020/12/29 12:40:19;;;;;;;9.73;4.43;;;18.20;48.00;;;;;;5094122;28;20028;-67
2020/12/29 12:42:45;;;;;;;12.20;5.75;;;18.30;47.60;;;;;;5093727;28;20035;-69
2020/12/29 12:45:11;;;;;;;18.38;6.55;;;18.40;47.10;;;;;;5092680;28;20081;-70
2020/12/29 12:47:36;;;;;;;13.77;4.88;;;18.70;47.80;;;;;;5093725;28;20111;-69
2020/12/29 12:50:02;;;;;;;12.57;6.55;;;18.40;46.30;;;;;;5093995;28;20107;-69
2020/12/29 12:52:28;;;;;;;14.27;7.57;;;18.30;47.20;;;;;;5093300;28;20032;-69
2020/12/29 12:54:54;;;;;;;16.50;8.55;;;18.40;46.50;;;;;;5093382;28;20103;-68
2020/12/29 12:57:20;;;;;;;23.42;12.57;;;18.30;47.00;;;;;;5092631;28;20024;-69
2020/12/29 12:59:45;;;;;;;26.05;12.60;;;18.30;47.00;;;;;;5094200;28;20031;-69
2020/12/29 13:02:11;;;;;;;22.20;11.57;;;18.50;47.10;;;;;;5093305;28;20395;-70
2020/12/29 13:04:38;;;;;;;12.38;6.25;;;18.20;46.30;;;;;;5093539;28;20024;-70
2020/12/29 13:07:04;;;;;;;14.60;7.63;;;18.10;46.80;;;;;;5093823;28;20073;-69
2020/12/29 13:09:30;;;;;;;12.40;6.20;;;17.70;47.70;;;;;;5092194;28;20024;-68
2020/12/29 13:11:55;;;;;;;26.02;12.48;;;17.10;48.50;;;;;;5093516;28;20025;-70
2020/12/29 13:14:21;;;;;;;13.50;5.82;;;16.70;50.50;;;;;;5094046;28;20062;-68
2020/12/29 13:16:47;;;;;;;13.75;6.55;;;16.40;51.00;;;;;;5093769;28;20024;-68
2020/12/29 13:19:13;;;;;;;12.70;6.20;;;16.30;51.20;;;;;;5094036;28;20024;-70
2020/12/29 13:21:39;;;;;;;17.30;8.95;;;16.10;51.60;;;;;;5092317;28;20028;-70
2020/12/29 13:24:04;;;;;;;15.43;7.57;;;16.00;52.60;;;;;;5091987;28;20381;-68
2020/12/29 13:26:30;;;;;;;15.82;8.15;;;15.80;52.10;;;;;;5092322;28;20120;-68
2020/12/29 13:28:56;;;;;;;22.45;9.88;;;15.80;50.00;;;;;;5093654;28;20483;-68
2020/12/29 13:31:22;;;;;;;17.10;8.80;;;15.80;50.50;;;;;;5091966;28;20369;-69
2020/12/29 13:33:49;;;;;;;15.00;7.90;;;15.70;50.60;;;;;;5091973;28;20077;-69
2020/12/29 13:36:15;;;;;;;15.40;7.25;;;15.50;53.70;;;;;;5092271;28;20028;-70
2020/12/29 13:38:40;;;;;;;19.02;8.68;;;15.50;55.50;;;;;;5093198;28;20404;-68
2020/12/29 13:41:07;;;;;;;22.90;10.25;;;15.40;56.70;;;;;;5091975;28;20030;-70
2020/12/29 13:43:34;;;;;;;20.65;10.75;;;15.40;56.40;;;;;;5093367;28;20028;-70
2020/12/29 13:46:00;;;;;;;22.67;11.45;;;15.30;56.70;;;;;;5093461;28;20059;-67
2020/12/29 13:48:26;;;;;;;28.23;12.02;;;15.30;57.50;;;;;;5091885;28;20058;-68
2020/12/29 13:50:52;;;;;;;25.60;13.55;;;15.20;56.90;;;;;;5095571;28;20366;-70
2020/12/29 13:53:19;;;;;;;14.35;7.03;;;15.10;54.00;;;;;;5097271;28;20063;-68
2020/12/29 13:55:48;;;;;;;8.40;4.25;;;15.10;48.30;;;;;;5097483;28;20025;-68
2020/12/29 13:58:14;;;;;;;9.95;5.38;;;15.10;43.10;;;;;;5095507;28;20024;-67
2020/12/29 14:00:40;;;;;;;9.65;5.50;;;15.10;44.70;;;;;;5095876;28;20020;-70
2020/12/29 14:03:07;;;;;;;10.77;6.25;;;15.10;43.70;;;;;;5095810;28;20081;-68
2020/12/29 14:05:36;;;;;;;13.07;5.47;;;15.00;44.50;;;;;;5096397;28;20024;-68
2020/12/29 14:08:04;;;;;;;24.38;16.42;;;15.00;43.70;;;;;;5097237;28;20112;-68
2020/12/29 14:10:31;;;;;;;8.85;4.88;;;14.90;48.00;;;;;;5096602;28;20027;-68
2020/12/29 14:12:56;;;;;;;8.57;4.28;;;14.70;51.90;;;;;;5096294;28;20140;-69
2020/12/29 14:15:22;;;;;;;10.30;5.32;;;14.60;53.20;;;;;;5096812;28;20108;-68
2020/12/29 14:17:48;;;;;;;9.90;5.13;;;14.40;55.10;;;;;;5096751;28;20032;-69
2020/12/29 14:20:14;;;;;;;13.30;6.90;;;14.30;55.70;;;;;;5096097;28;20522;-68
2020/12/29 14:22:41;;;;;;;25.90;15.55;;;14.20;56.10;;;;;;5096612;28;20473;-69
2020/12/29 14:25:06;;;;;;;27.80;20.35;;;14.20;56.30;;;;;;5095360;28;20032;-69
2020/12/29 14:27:32;;;;;;;28.80;18.42;;;14.10;55.30;;;;;;5096295;28;20032;-70
2020/12/29 14:29:58;;;;;;;33.10;26.08;;;14.00;56.90;;;;;;5096583;28;20028;-68
2020/12/29 14:32:24;;;;;;;149.02;96.82;;;13.90;57.20;;;;;;5096452;28;20099;-69
2020/12/29 14:34:50;;;;;;;13.88;8.90;;;13.90;57.20;;;;;;5096432;28;20103;-68
2020/12/29 14:37:16;;;;;;;135.85;74.32;;;13.80;57.40;;;;;;5096385;28;20020;-68
2020/12/29 14:39:41;;;;;;;301.83;128.82;;;13.70;57.70;;;;;;5095865;28;20460;-67
2020/12/29 14:42:07;;;;;;;135.75;71.75;;;13.70;58.00;;;;;;5094976;28;20115;-68
2020/12/29 14:44:33;;;;;;;86.88;61.08;;;13.60;58.00;;;;;;5095956;28;20032;-68
2020/12/29 14:47:03;;;;;;;121.05;60.85;;;13.60;59.10;;;;;;5094616;28;20453;-69
2020/12/29 14:49:29;;;;;;;94.75;52.75;;;13.50;58.50;;;;;;5096208;28;20047;-68
2020/12/29 14:52:03;;;;;;;52.55;34.42;;;13.50;58.30;;;;;;5095887;28;20027;-69
2020/12/29 14:54:43;;;;;;;32.75;23.13;;;13.50;58.70;;;;;;5095979;28;20114;-69
2020/12/29 14:57:09;;;;;;;37.63;24.38;;;13.50;58.60;;;;;;5095737;28;20032;-68
2020/12/29 14:59:35;;;;;;;34.28;21.60;;;13.40;58.00;;;;;;5095956;28;20473;-69
2020/12/29 15:02:01;;;;;;;36.30;25.55;;;13.40;57.90;;;;;;5095362;28;20039;-68
2020/12/29 15:04:26;;;;;;;40.50;25.85;;;13.40;58.90;;;;;;5095938;28;20032;-69
2020/12/29 15:06:54;;;;;;;30.90;18.33;;;13.40;58.50;;;;;;5095117;28;20035;-70
2020/12/29 15:09:20;;;;;;;38.55;21.00;;;13.30;58.60;;;;;;5095471;28;20024;-69
2020/12/29 15:11:46;;;;;;;38.58;23.38;;;13.30;58.80;;;;;;5096027;28;20524;-67
2020/12/29 15:14:11;;;;;;;40.72;26.38;;;13.20;59.10;;;;;;5095309;28;20048;-68
2020/12/29 15:16:37;;;;;;;41.08;24.02;;;13.10;60.40;;;;;;5094618;28;20107;-70
2020/12/29 15:19:05;;;;;;;52.65;31.48;;;13.00;60.40;;;;;;5095311;28;20099;-68
2020/12/29 15:21:33;;;;;;;46.15;27.58;;;12.90;61.60;;;;;;5095370;28;20407;-67
2020/12/29 15:23:59;;;;;;;54.28;31.83;;;12.80;61.10;;;;;;5095000;28;20036;-68
2020/12/29 15:26:25;;;;;;;41.45;24.85;;;12.80;61.40;;;;;;5093711;28;20029;-69
2020/12/29 15:28:51;;;;;;;50.42;30.75;;;12.70;62.20;;;;;;5094117;28;20025;-71
2020/12/29 15:31:17;;;;;;;102.53;58.83;;;12.70;61.60;;;;;;5094009;28;20032;-69
2020/12/29 15:33:43;;;;;;;87.03;51.05;;;12.60;61.70;;;;;;5094960;28;20480;-68
2020/12/29 15:36:11;;;;;;;79.07;47.38;;;12.60;62.40;;;;;;5093629;28;20031;-67
2020/12/29 15:38:39;;;;;;;71.72;42.92;;;12.50;62.10;;;;;;5093925;28;20546;-68
2020/12/29 15:41:05;;;;;;;72.65;42.55;;;12.40;61.70;;;;;;5094665;28;20024;-69
2020/12/29 15:43:31;;;;;;;54.78;32.60;;;12.40;62.00;;;;;;5093384;28;20035;-69
2020/12/29 15:45:57;;;;;;;50.60;30.48;;;12.30;60.30;;;;;;5094719;28;20103;-68
2020/12/29 15:48:23;;;;;;;51.35;28.05;;;12.30;60.50;;;;;;5092390;28;20028;-68
2020/12/29 15:50:49;;;;;;;53.88;31.35;;;12.30;60.60;;;;;;5093567;28;20030;-69
2020/12/29 15:53:16;;;;;;;65.70;40.67;;;12.20;61.10;;;;;;5093923;28;20023;-70
2020/12/29 15:55:42;;;;;;;63.90;39.65;;;12.20;61.60;;;;;;5093580;28;20028;-69
2020/12/29 15:58:08;;;;;;;78.63;42.85;;;12.20;62.30;;;;;;5094584;28;20035;-67
2020/12/29 16:00:33;;;;;;;77.72;46.72;;;12.20;62.10;;;;;;5095057;28;20099;-67
2020/12/29 16:02:59;;;;;;;69.45;36.58;;;12.20;62.00;;;;;;5094601;28;20028;-67
2020/12/29 16:05:25;;;;;;;60.72;34.20;;;12.20;62.70;;;;;;5094445;28;20024;-69
2020/12/29 16:07:51;;;;;;;50.95;32.00;;;12.10;63.40;;;;;;5093621;28;20028;-69
2020/12/29 16:10:18;;;;;;;42.72;23.90;;;12.10;62.80;;;;;;5094600;28;20024;-69
2020/12/29 16:12:47;;;;;;;35.72;20.83;;;12.10;62.80;;;;;;5092285;28;20482;-70
2020/12/29 16:15:13;;;;;;;36.42;19.88;;;12.10;63.30;;;;;;5092749;28;20032;-69
2020/12/29 16:17:40;;;;;;;52.38;26.08;;;12.00;62.30;;;;;;5094311;28;20381;-69
2020/12/29 16:20:06;;;;;;;47.10;24.45;;;12.00;63.30;;;;;;5092582;28;20032;-70
2020/12/29 16:22:32;;;;;;;39.25;22.60;;;12.00;64.20;;;;;;5094293;28;20028;-69
2020/12/29 16:24:58;;;;;;;110.70;62.35;;;11.90;64.20;;;;;;5094319;28;20032;-71
2020/12/29 16:27:24;;;;;;;68.35;41.30;;;11.80;65.30;;;;;;5094315;28;20381;-69
2020/12/29 16:29:49;;;;;;;51.00;32.05;;;11.80;64.20;;;;;;5093959;28;20461;-69
2020/12/29 16:32:17;;;;;;;125.60;84.20;;;11.80;62.10;;;;;;5092689;28;20024;-68
2020/12/29 16:34:44;;;;;;;57.75;39.28;;;11.80;62.50;;;;;;5094546;28;20368;-70
2020/12/29 16:37:10;;;;;;;38.92;23.40;;;11.80;59.80;;;;;;5094177;28;20392;-69
2020/12/29 16:39:36;;;;;;;56.13;34.08;;;11.90;59.90;;;;;;5093590;28;20024;-69
2020/12/29 16:42:13;;;;;;;48.67;26.10;;;11.90;58.90;;;;;;5092799;28;20031;-69
2020/12/29 16:44:40;;;;;;;48.08;29.25;;;11.90;58.70;;;;;;5094132;28;20043;-69
2020/12/29 16:47:07;;;;;;;49.17;29.70;;;11.80;60.80;;;;;;5093763;28;20481;-70
2020/12/29 16:49:33;;;;;;;66.57;38.03;;;11.80;58.70;;;;;;5093583;28;20032;-69
2020/12/29 16:51:59;;;;;;;42.55;25.00;;;11.80;58.40;;;;;;5092705;28;20033;-69
2020/12/29 16:54:25;;;;;;;39.70;24.17;;;11.80;58.20;;;;;;5093965;28;20039;-68
2020/12/29 16:56:55;;;;;;;33.70;19.20;;;11.80;58.40;;;;;;5092626;28;20028;-69
2020/12/29 16:59:22;;;;;;;32.50;18.33;;;11.80;58.10;;;;;;5093398;28;20058;-66
2020/12/29 17:01:48;;;;;;;40.35;27.08;;;11.80;57.90;;;;;;5093377;28;20473;-66
2020/12/29 17:04:14;;;;;;;56.67;34.70;;;11.80;58.50;;;;;;5093479;28;20031;-71
2020/12/29 17:06:42;;;;;;;52.38;29.77;;;11.80;59.80;;;;;;5092685;28;20047;-68
2020/12/29 17:09:08;;;;;;;39.67;23.67;;;11.70;59.40;;;;;;5092216;28;20028;-71
2020/12/29 17:11:33;;;;;;;47.15;26.27;;;11.60;59.30;;;;;;5092478;28;20039;-71
2020/12/29 17:13:59;;;;;;;55.03;30.05;;;11.60;60.00;;;;;;5093411;28;20055;-71
2020/12/29 17:16:27;;;;;;;51.58;30.77;;;11.50;60.70;;;;;;5092553;28;20060;-72
2020/12/29 17:18:53;;;;;;;56.42;32.88;;;11.40;63.10;;;;;;5090758;28;20113;-72
2020/12/29 17:21:20;;;;;;;57.65;33.80;;;11.30;63.50;;;;;;5090793;28;20020;-71
2020/12/29 17:23:47;;;;;;;65.78;37.15;;;11.30;65.50;;;;;;5091061;28;20366;-72
2020/12/29 17:26:21;;;;;;;80.45;49.25;;;11.10;64.90;;;;;;5094501;28;20028;-70
2020/12/29 17:28:48;;;;;;;106.03;60.70;;;11.20;64.90;;;;;;5093540;28;20020;-71
2020/12/29 17:31:15;;;;;;;132.13;78.85;;;11.10;65.60;;;;;;5096066;28;20035;-71
2020/12/29 17:33:42;;;;;;;129.45;75.00;;;11.00;64.20;;;;;;5095035;28;20104;-73
2020/12/29 17:36:08;;;;;;;154.43;87.05;;;11.00;66.20;;;;;;5096114;28;20095;-71
2020/12/29 17:38:35;;;;;;;132.55;78.07;;;10.90;65.80;;;;;;5097241;28;20028;-71
2020/12/29 17:41:02;;;;;;;159.30;92.20;;;10.90;66.40;;;;;;5095888;28;20077;-71
2020/12/29 17:43:28;;;;;;;213.00;117.20;;;10.80;66.90;;;;;;5095843;28;20035;-71
2020/12/29 17:45:54;;;;;;;174.68;99.45;;;10.60;66.10;;;;;;5097350;28;20028;-71
2020/12/29 17:48:20;;;;;;;157.10;91.53;;;10.70;68.40;;;;;;5097246;28;20461;-72
2020/12/29 17:50:45;;;;;;;123.82;72.05;;;10.60;67.40;;;;;;5095712;28;20042;-71
2020/12/29 17:53:11;;;;;;;106.18;61.13;;;10.50;70.00;;;;;;5097275;28;20397;-71
2020/12/29 17:55:37;;;;;;;87.00;48.95;;;10.50;66.50;;;;;;5097299;28;20426;-72
2020/12/29 17:58:07;;;;;;;67.63;40.42;;;10.60;65.40;;;;;;5095556;28;20452;-69
2020/12/29 18:00:33;;;;;;;64.13;35.70;;;10.60;64.50;;;;;;5096739;28;20606;-71
2020/12/29 18:03:00;;;;;;;65.47;36.47;;;10.60;64.00;;;;;;5095964;28;20776;-71
2020/12/29 18:05:27;;;;;;;58.13;36.25;;;10.60;63.70;;;;;;5097095;28;20031;-70